sensor_id;sensor_type;location;lat;lon;timestamp;temperature;humidity
38480;DHT22;62333;51.980;5.934;2022-09-17T00:01:57;15.40;68.30
38480;DHT22;62333;51.980;5.934;2022-09-17T00:04:23;15.40;68.80
38480;DHT22;62333;51.980;5.934;2022-09-17T00:06:49;15.40;69.60
38480;DHT22;62333;51.980;5.934;2022-09-17T00:09:15;15.30;69.90
38480;DHT22;62333;51.980;5.934;2022-09-17T00:11:42;15.30;70.10
38480;DHT22;62333;51.980;5.934;2022-09-17T00:14:12;15.30;70.10
38480;DHT22;62333;51.980;5.934;2022-09-17T00:16:41;15.30;70.10
38480;DHT22;62333;51.980;5.934;2022-09-17T00:19:13;15.30;70.10
38480;DHT22;62333;51.980;5.934;2022-09-17T00:21:40;15.30;70.30
38480;DHT22;62333;51.980;5.934;2022-09-17T00:24:06;15.30;70.50
38480;DHT22;62333;51.980;5.934;2022-09-17T00:26:32;15.20;70.50
38480;DHT22;62333;51.980;5.934;2022-09-17T00:28:59;15.20;70.60
38480;DHT22;62333;51.980;5.934;2022-09-17T00:31:27;15.20;70.60
38480;DHT22;62333;51.980;5.934;2022-09-17T00:33:53;15.20;70.80
38480;DHT22;62333;51.980;5.934;2022-09-17T00:36:19;15.20;70.90
38480;DHT22;62333;51.980;5.934;2022-09-17T00:38:49;15.20;71.00
38480;DHT22;62333;51.980;5.934;2022-09-17T00:41:15;15.10;71.10
38480;DHT22;62333;51.980;5.934;2022-09-17T00:43:52;15.20;71.20
38480;DHT22;62333;51.980;5.934;2022-09-17T00:46:34;15.10;71.20
38480;DHT22;62333;51.980;5.934;2022-09-17T00:49:27;15.10;71.40
38480;DHT22;62333;51.980;5.934;2022-09-17T00:52:03;15.10;71.40
38480;DHT22;62333;51.980;5.934;2022-09-17T00:54:30;15.10;71.30
38480;DHT22;62333;51.980;5.934;2022-09-17T00:56:57;15.10;71.30
38480;DHT22;62333;51.980;5.934;2022-09-17T00:59:23;15.10;71.40
38480;DHT22;62333;51.980;5.934;2022-09-17T01:01:49;15.00;71.40
38480;DHT22;62333;51.980;5.934;2022-09-17T01:04:17;15.00;71.40
38480;DHT22;62333;51.980;5.934;2022-09-17T01:07:08;15.00;71.50
38480;DHT22;62333;51.980;5.934;2022-09-17T01:15:46;15.00;71.90
38480;DHT22;62333;51.980;5.934;2022-09-17T01:20:58;15.00;72.10
38480;DHT22;62333;51.980;5.934;2022-09-17T01:28:56;14.90;72.70
38480;DHT22;62333;51.980;5.934;2022-09-17T01:34:25;14.80;74.90
38480;DHT22;62333;51.980;5.934;2022-09-17T01:39:41;14.70;74.60
38480;DHT22;62333;51.980;5.934;2022-09-17T01:42:24;14.70;74.80
38480;DHT22;62333;51.980;5.934;2022-09-17T01:45:18;14.70;74.80
38480;DHT22;62333;51.980;5.934;2022-09-17T01:48:19;14.70;74.60
38480;DHT22;62333;51.980;5.934;2022-09-17T01:51:06;14.70;74.50
38480;DHT22;62333;51.980;5.934;2022-09-17T01:56:38;14.70;74.70
38480;DHT22;62333;51.980;5.934;2022-09-17T01:59:33;14.70;74.90
38480;DHT22;62333;51.980;5.934;2022-09-17T02:02:06;14.60;75.00
38480;DHT22;62333;51.980;5.934;2022-09-17T02:04:41;14.60;75.10
38480;DHT22;62333;51.980;5.934;2022-09-17T02:07:14;14.60;75.10
38480;DHT22;62333;51.980;5.934;2022-09-17T02:09:57;14.60;75.20
38480;DHT22;62333;51.980;5.934;2022-09-17T02:12:28;14.50;75.20
38480;DHT22;62333;51.980;5.934;2022-09-17T02:14:58;14.50;75.30
38480;DHT22;62333;51.980;5.934;2022-09-17T02:19:54;14.50;75.50
38480;DHT22;62333;51.980;5.934;2022-09-17T02:22:28;14.50;76.20
38480;DHT22;62333;51.980;5.934;2022-09-17T02:25:05;14.50;75.70
38480;DHT22;62333;51.980;5.934;2022-09-17T02:30:11;14.40;75.70
38480;DHT22;62333;51.980;5.934;2022-09-17T02:32:37;14.40;75.70
38480;DHT22;62333;51.980;5.934;2022-09-17T02:35:03;14.40;75.80
38480;DHT22;62333;51.980;5.934;2022-09-17T02:37:30;14.40;75.90
38480;DHT22;62333;51.980;5.934;2022-09-17T02:39:56;14.40;76.00
38480;DHT22;62333;51.980;5.934;2022-09-17T02:42:48;14.40;76.10
38480;DHT22;62333;51.980;5.934;2022-09-17T02:48:18;14.40;76.00
38480;DHT22;62333;51.980;5.934;2022-09-17T02:53:44;14.30;75.90
38480;DHT22;62333;51.980;5.934;2022-09-17T03:01:43;14.20;76.30
38480;DHT22;62333;51.980;5.934;2022-09-17T03:04:12;14.20;76.30
38480;DHT22;62333;51.980;5.934;2022-09-17T03:06:41;14.20;76.40
38480;DHT22;62333;51.980;5.934;2022-09-17T03:09:08;14.20;76.40
38480;DHT22;62333;51.980;5.934;2022-09-17T03:11:34;14.20;76.40
38480;DHT22;62333;51.980;5.934;2022-09-17T03:13:59;14.20;76.40
38480;DHT22;62333;51.980;5.934;2022-09-17T03:16:25;14.10;76.40
38480;DHT22;62333;51.980;5.934;2022-09-17T03:18:50;14.10;76.40
38480;DHT22;62333;51.980;5.934;2022-09-17T03:21:16;14.10;76.40
38480;DHT22;62333;51.980;5.934;2022-09-17T03:23:42;14.10;76.40
38480;DHT22;62333;51.980;5.934;2022-09-17T03:26:07;14.10;76.40
38480;DHT22;62333;51.980;5.934;2022-09-17T03:28:33;14.00;76.30
38480;DHT22;62333;51.980;5.934;2022-09-17T03:30:59;14.00;76.90
38480;DHT22;62333;51.980;5.934;2022-09-17T03:33:25;14.00;76.30
38480;DHT22;62333;51.980;5.934;2022-09-17T03:35:51;14.00;76.20
38480;DHT22;62333;51.980;5.934;2022-09-17T03:38:16;14.00;76.30
38480;DHT22;62333;51.980;5.934;2022-09-17T03:40:42;13.90;76.30
38480;DHT22;62333;51.980;5.934;2022-09-17T03:43:11;13.90;76.30
38480;DHT22;62333;51.980;5.934;2022-09-17T03:45:37;13.90;76.40
38480;DHT22;62333;51.980;5.934;2022-09-17T03:48:03;13.90;76.40
38480;DHT22;62333;51.980;5.934;2022-09-17T03:50:28;13.80;76.40
38480;DHT22;62333;51.980;5.934;2022-09-17T03:52:54;13.80;76.50
38480;DHT22;62333;51.980;5.934;2022-09-17T03:55:19;13.80;76.50
38480;DHT22;62333;51.980;5.934;2022-09-17T03:57:45;13.70;76.40
38480;DHT22;62333;51.980;5.934;2022-09-17T04:00:11;13.70;76.50
38480;DHT22;62333;51.980;5.934;2022-09-17T04:02:37;13.70;76.60
38480;DHT22;62333;51.980;5.934;2022-09-17T04:05:03;13.70;76.50
38480;DHT22;62333;51.980;5.934;2022-09-17T04:07:29;13.70;76.60
38480;DHT22;62333;51.980;5.934;2022-09-17T04:09:54;13.70;76.60
38480;DHT22;62333;51.980;5.934;2022-09-17T04:12:20;13.70;76.50
38480;DHT22;62333;51.980;5.934;2022-09-17T04:14:45;13.70;76.40
38480;DHT22;62333;51.980;5.934;2022-09-17T04:17:11;13.70;76.20
38480;DHT22;62333;51.980;5.934;2022-09-17T04:19:42;13.70;76.10
38480;DHT22;62333;51.980;5.934;2022-09-17T04:22:08;13.70;76.10
38480;DHT22;62333;51.980;5.934;2022-09-17T04:24:34;13.70;76.00
38480;DHT22;62333;51.980;5.934;2022-09-17T04:26:59;13.70;76.00
38480;DHT22;62333;51.980;5.934;2022-09-17T04:29:25;13.60;75.90
38480;DHT22;62333;51.980;5.934;2022-09-17T04:31:50;13.60;75.80
38480;DHT22;62333;51.980;5.934;2022-09-17T04:34:16;13.60;75.80
38480;DHT22;62333;51.980;5.934;2022-09-17T04:36:42;13.60;75.80
38480;DHT22;62333;51.980;5.934;2022-09-17T04:39:08;13.60;76.00
38480;DHT22;62333;51.980;5.934;2022-09-17T04:41:33;13.60;75.80
38480;DHT22;62333;51.980;5.934;2022-09-17T04:44:00;13.50;75.70
38480;DHT22;62333;51.980;5.934;2022-09-17T04:46:25;13.50;75.80
38480;DHT22;62333;51.980;5.934;2022-09-17T04:48:51;13.40;75.80
38480;DHT22;62333;51.980;5.934;2022-09-17T04:51:17;13.40;75.80
38480;DHT22;62333;51.980;5.934;2022-09-17T04:53:42;13.40;75.90
38480;DHT22;62333;51.980;5.934;2022-09-17T04:56:08;13.30;76.00
38480;DHT22;62333;51.980;5.934;2022-09-17T04:58:34;13.30;76.00
38480;DHT22;62333;51.980;5.934;2022-09-17T05:00:59;13.30;76.10
38480;DHT22;62333;51.980;5.934;2022-09-17T05:03:25;13.20;76.00
38480;DHT22;62333;51.980;5.934;2022-09-17T05:05:51;13.20;76.10
38480;DHT22;62333;51.980;5.934;2022-09-17T05:08:17;13.20;76.10
38480;DHT22;62333;51.980;5.934;2022-09-17T05:10:42;13.20;76.20
38480;DHT22;62333;51.980;5.934;2022-09-17T05:13:08;13.20;76.20
38480;DHT22;62333;51.980;5.934;2022-09-17T05:15:34;13.20;76.20
38480;DHT22;62333;51.980;5.934;2022-09-17T05:17:59;13.20;76.20
38480;DHT22;62333;51.980;5.934;2022-09-17T05:20:25;13.10;76.20
38480;DHT22;62333;51.980;5.934;2022-09-17T05:22:51;13.10;76.20
38480;DHT22;62333;51.980;5.934;2022-09-17T05:25:19;13.10;76.20
38480;DHT22;62333;51.980;5.934;2022-09-17T05:27:45;13.10;76.20
38480;DHT22;62333;51.980;5.934;2022-09-17T05:30:11;13.10;76.20
38480;DHT22;62333;51.980;5.934;2022-09-17T05:32:37;13.10;76.20
38480;DHT22;62333;51.980;5.934;2022-09-17T05:35:04;13.10;76.20
38480;DHT22;62333;51.980;5.934;2022-09-17T05:37:30;13.10;76.20
38480;DHT22;62333;51.980;5.934;2022-09-17T05:39:56;13.10;76.20
38480;DHT22;62333;51.980;5.934;2022-09-17T05:42:22;13.10;76.10
38480;DHT22;62333;51.980;5.934;2022-09-17T05:44:47;13.10;76.20
38480;DHT22;62333;51.980;5.934;2022-09-17T05:47:13;13.00;76.20
38480;DHT22;62333;51.980;5.934;2022-09-17T05:49:39;13.10;76.30
38480;DHT22;62333;51.980;5.934;2022-09-17T05:52:05;13.10;76.30
38480;DHT22;62333;51.980;5.934;2022-09-17T05:54:30;13.10;76.30
38480;DHT22;62333;51.980;5.934;2022-09-17T05:56:56;13.10;76.30
38480;DHT22;62333;51.980;5.934;2022-09-17T05:59:22;13.10;76.30
38480;DHT22;62333;51.980;5.934;2022-09-17T06:01:48;13.10;76.30
38480;DHT22;62333;51.980;5.934;2022-09-17T06:04:14;13.10;76.30
38480;DHT22;62333;51.980;5.934;2022-09-17T06:06:39;13.10;76.20
38480;DHT22;62333;51.980;5.934;2022-09-17T06:09:06;13.10;76.20
38480;DHT22;62333;51.980;5.934;2022-09-17T06:11:33;13.10;76.20
38480;DHT22;62333;51.980;5.934;2022-09-17T06:13:59;13.00;76.10
38480;DHT22;62333;51.980;5.934;2022-09-17T06:16:25;13.10;76.20
38480;DHT22;62333;51.980;5.934;2022-09-17T06:18:51;13.10;76.20
38480;DHT22;62333;51.980;5.934;2022-09-17T06:21:18;13.00;76.10
38480;DHT22;62333;51.980;5.934;2022-09-17T06:23:44;13.10;76.20
38480;DHT22;62333;51.980;5.934;2022-09-17T06:26:10;13.10;76.30
38480;DHT22;62333;51.980;5.934;2022-09-17T06:28:36;13.30;76.40
38480;DHT22;62333;51.980;5.934;2022-09-17T06:31:03;13.50;76.20
38480;DHT22;62333;51.980;5.934;2022-09-17T06:33:30;13.70;76.10
38480;DHT22;62333;51.980;5.934;2022-09-17T06:36:00;13.90;75.90
38480;DHT22;62333;51.980;5.934;2022-09-17T06:38:27;14.00;75.50
38480;DHT22;62333;51.980;5.934;2022-09-17T06:40:54;14.20;75.00
38480;DHT22;62333;51.980;5.934;2022-09-17T06:43:20;14.30;74.80
38480;DHT22;62333;51.980;5.934;2022-09-17T06:46:04;14.50;74.40
38480;DHT22;62333;51.980;5.934;2022-09-17T06:48:33;14.60;73.80
38480;DHT22;62333;51.980;5.934;2022-09-17T06:51:04;14.80;73.50
38480;DHT22;62333;51.980;5.934;2022-09-17T06:53:30;14.80;72.80
38480;DHT22;62333;51.980;5.934;2022-09-17T06:55:57;15.00;72.50
38480;DHT22;62333;51.980;5.934;2022-09-17T06:58:24;15.00;72.30
38480;DHT22;62333;51.980;5.934;2022-09-17T07:00:50;15.10;72.10
38480;DHT22;62333;51.980;5.934;2022-09-17T07:03:16;15.30;71.90
38480;DHT22;62333;51.980;5.934;2022-09-17T07:05:43;15.40;71.60
38480;DHT22;62333;51.980;5.934;2022-09-17T07:08:09;15.50;71.30
38480;DHT22;62333;51.980;5.934;2022-09-17T07:10:36;15.60;71.10
38480;DHT22;62333;51.980;5.934;2022-09-17T07:13:02;15.70;70.70
38480;DHT22;62333;51.980;5.934;2022-09-17T07:15:28;15.80;70.50
38480;DHT22;62333;51.980;5.934;2022-09-17T07:17:54;16.00;70.40
38480;DHT22;62333;51.980;5.934;2022-09-17T07:20:20;16.10;70.10
38480;DHT22;62333;51.980;5.934;2022-09-17T07:22:54;16.30;69.80
38480;DHT22;62333;51.980;5.934;2022-09-17T07:25:22;16.40;69.30
38480;DHT22;62333;51.980;5.934;2022-09-17T07:27:47;16.50;68.90
38480;DHT22;62333;51.980;5.934;2022-09-17T07:30:13;16.60;68.60
38480;DHT22;62333;51.980;5.934;2022-09-17T07:32:40;16.80;68.30
38480;DHT22;62333;51.980;5.934;2022-09-17T07:35:05;16.90;67.90
38480;DHT22;62333;51.980;5.934;2022-09-17T07:37:31;16.90;67.20
38480;DHT22;62333;51.980;5.934;2022-09-17T07:39:57;17.00;66.90
38480;DHT22;62333;51.980;5.934;2022-09-17T07:42:23;17.10;66.60
38480;DHT22;62333;51.980;5.934;2022-09-17T07:44:48;17.10;66.00
38480;DHT22;62333;51.980;5.934;2022-09-17T07:47:14;17.20;65.90
38480;DHT22;62333;51.980;5.934;2022-09-17T07:49:41;17.40;65.80
38480;DHT22;62333;51.980;5.934;2022-09-17T07:52:06;17.50;65.20
38480;DHT22;62333;51.980;5.934;2022-09-17T07:54:32;17.50;64.70
38480;DHT22;62333;51.980;5.934;2022-09-17T07:56:59;17.60;64.80
38480;DHT22;62333;51.980;5.934;2022-09-17T07:59:25;17.80;65.10
38480;DHT22;62333;51.980;5.934;2022-09-17T08:01:50;17.90;64.20
38480;DHT22;62333;51.980;5.934;2022-09-17T08:04:16;18.00;63.90
38480;DHT22;62333;51.980;5.934;2022-09-17T08:06:42;18.20;63.30
38480;DHT22;62333;51.980;5.934;2022-09-17T08:09:08;18.30;62.80
38480;DHT22;62333;51.980;5.934;2022-09-17T08:11:35;18.50;62.40
38480;DHT22;62333;51.980;5.934;2022-09-17T08:14:01;18.60;61.70
38480;DHT22;62333;51.980;5.934;2022-09-17T08:16:27;18.70;61.40
38480;DHT22;62333;51.980;5.934;2022-09-17T08:18:55;18.70;61.00
38480;DHT22;62333;51.980;5.934;2022-09-17T08:21:21;18.80;61.00
38480;DHT22;62333;51.980;5.934;2022-09-17T08:23:46;18.90;60.60
38480;DHT22;62333;51.980;5.934;2022-09-17T08:26:15;18.90;59.80
38480;DHT22;62333;51.980;5.934;2022-09-17T08:28:45;19.00;59.50
38480;DHT22;62333;51.980;5.934;2022-09-17T08:31:13;19.00;59.30
38480;DHT22;62333;51.980;5.934;2022-09-17T08:33:39;19.00;59.60
38480;DHT22;62333;51.980;5.934;2022-09-17T08:36:06;19.10;59.00
38480;DHT22;62333;51.980;5.934;2022-09-17T08:38:34;19.10;58.60
38480;DHT22;62333;51.980;5.934;2022-09-17T08:43:50;19.00;58.80
38480;DHT22;62333;51.980;5.934;2022-09-17T08:46:16;19.00;59.00
38480;DHT22;62333;51.980;5.934;2022-09-17T08:51:32;19.10;57.80
38480;DHT22;62333;51.980;5.934;2022-09-17T09:00:18;19.50;57.10
38480;DHT22;62333;51.980;5.934;2022-09-17T09:05:35;19.50;54.90
38480;DHT22;62333;51.980;5.934;2022-09-17T09:13:14;19.40;54.80
38480;DHT22;62333;51.980;5.934;2022-09-17T09:15:53;19.50;53.90
38480;DHT22;62333;51.980;5.934;2022-09-17T09:18:23;19.60;52.20
38480;DHT22;62333;51.980;5.934;2022-09-17T09:20:52;19.70;52.40
38480;DHT22;62333;51.980;5.934;2022-09-17T09:23:26;19.90;52.30
38480;DHT22;62333;51.980;5.934;2022-09-17T09:26:03;20.00;51.90
38480;DHT22;62333;51.980;5.934;2022-09-17T09:33:57;20.30;50.20
38480;DHT22;62333;51.980;5.934;2022-09-17T09:36:27;20.40;50.50
38480;DHT22;62333;51.980;5.934;2022-09-17T09:39:11;20.50;50.10
38480;DHT22;62333;51.980;5.934;2022-09-17T09:41:48;20.50;50.10
38480;DHT22;62333;51.980;5.934;2022-09-17T09:44:16;20.60;49.60
38480;DHT22;62333;51.980;5.934;2022-09-17T09:52:36;20.80;50.00
38480;DHT22;62333;51.980;5.934;2022-09-17T09:57:48;20.90;49.80
38480;DHT22;62333;51.980;5.934;2022-09-17T10:00:36;20.60;50.10
38480;DHT22;62333;51.980;5.934;2022-09-17T10:03:14;20.30;51.00
38480;DHT22;62333;51.980;5.934;2022-09-17T10:06:07;19.90;51.90
38480;DHT22;62333;51.980;5.934;2022-09-17T10:08:39;19.70;52.90
38480;DHT22;62333;51.980;5.934;2022-09-17T10:13:39;19.20;54.40
38480;DHT22;62333;51.980;5.934;2022-09-17T10:16:25;19.10;55.20
38480;DHT22;62333;51.980;5.934;2022-09-17T10:21:38;18.90;56.30
38480;DHT22;62333;51.980;5.934;2022-09-17T10:26:41;19.00;57.50
38480;DHT22;62333;51.980;5.934;2022-09-17T10:29:15;18.90;57.90
38480;DHT22;62333;51.980;5.934;2022-09-17T10:31:52;18.80;58.40
38480;DHT22;62333;51.980;5.934;2022-09-17T10:34:29;18.70;58.70
38480;DHT22;62333;51.980;5.934;2022-09-17T10:36:55;18.70;60.00
38480;DHT22;62333;51.980;5.934;2022-09-17T10:39:34;18.80;59.70
38480;DHT22;62333;51.980;5.934;2022-09-17T10:44:36;18.80;60.30
38480;DHT22;62333;51.980;5.934;2022-09-17T10:50:04;18.40;60.40
38480;DHT22;62333;51.980;5.934;2022-09-17T10:52:37;18.20;60.60
38480;DHT22;62333;51.980;5.934;2022-09-17T10:58:03;17.90;61.10
38480;DHT22;62333;51.980;5.934;2022-09-17T11:03:54;18.50;61.90
38480;DHT22;62333;51.980;5.934;2022-09-17T11:06:34;18.90;61.60
38480;DHT22;62333;51.980;5.934;2022-09-17T11:09:20;19.40;61.10
38480;DHT22;62333;51.980;5.934;2022-09-17T11:14:51;20.10;60.30
38480;DHT22;62333;51.980;5.934;2022-09-17T11:28:33;21.00;59.00
38480;DHT22;62333;51.980;5.934;2022-09-17T11:34:22;21.10;56.50
38480;DHT22;62333;51.980;5.934;2022-09-17T11:37:12;21.30;56.80
38480;DHT22;62333;51.980;5.934;2022-09-17T11:39:49;21.60;56.80
38480;DHT22;62333;51.980;5.934;2022-09-17T11:42:23;21.80;57.10
38480;DHT22;62333;51.980;5.934;2022-09-17T11:47:24;22.10;52.90
38480;DHT22;62333;51.980;5.934;2022-09-17T11:50:13;22.00;51.60
38480;DHT22;62333;51.980;5.934;2022-09-17T11:55:27;21.80;50.80
38480;DHT22;62333;51.980;5.934;2022-09-17T11:57:59;21.90;51.10
38480;DHT22;62333;51.980;5.934;2022-09-17T12:00:28;21.80;50.70
38480;DHT22;62333;51.980;5.934;2022-09-17T12:03:04;21.80;50.70
38480;DHT22;62333;51.980;5.934;2022-09-17T12:05:51;21.70;49.40
38480;DHT22;62333;51.980;5.934;2022-09-17T12:13:48;21.40;49.30
38480;DHT22;62333;51.980;5.934;2022-09-17T12:16:25;21.60;49.70
38480;DHT22;62333;51.980;5.934;2022-09-17T12:19:20;21.50;49.90
38480;DHT22;62333;51.980;5.934;2022-09-17T12:31:55;20.40;53.70
38480;DHT22;62333;51.980;5.934;2022-09-17T12:37:21;20.30;54.30
38480;DHT22;62333;51.980;5.934;2022-09-17T12:51:51;21.00;52.40
38480;DHT22;62333;51.980;5.934;2022-09-17T12:54:40;21.00;51.20
38480;DHT22;62333;51.980;5.934;2022-09-17T13:00:13;20.90;50.60
38480;DHT22;62333;51.980;5.934;2022-09-17T13:02:56;20.80;50.30
38480;DHT22;62333;51.980;5.934;2022-09-17T13:13:48;20.70;50.40
38480;DHT22;62333;51.980;5.934;2022-09-17T13:24:26;21.20;50.60
38480;DHT22;62333;51.980;5.934;2022-09-17T13:26:55;21.30;50.60
38480;DHT22;62333;51.980;5.934;2022-09-17T13:40:28;21.30;49.00
38480;DHT22;62333;51.980;5.934;2022-09-17T13:42:55;21.40;48.80
38480;DHT22;62333;51.980;5.934;2022-09-17T13:45:22;21.40;48.50
38480;DHT22;62333;51.980;5.934;2022-09-17T13:47:52;21.30;47.80
38480;DHT22;62333;51.980;5.934;2022-09-17T13:50:34;21.10;47.80
38480;DHT22;62333;51.980;5.934;2022-09-17T13:55:57;20.80;47.60
38480;DHT22;62333;51.980;5.934;2022-09-17T13:58:30;20.70;47.20
38480;DHT22;62333;51.980;5.934;2022-09-17T14:01:05;20.70;47.60
38480;DHT22;62333;51.980;5.934;2022-09-17T14:19:29;21.30;47.90
38480;DHT22;62333;51.980;5.934;2022-09-17T14:24:50;20.70;48.70
38480;DHT22;62333;51.980;5.934;2022-09-17T14:30:28;20.30;50.60
38480;DHT22;62333;51.980;5.934;2022-09-17T14:33:06;20.20;51.20
38480;DHT22;62333;51.980;5.934;2022-09-17T14:35:43;20.10;51.40
38480;DHT22;62333;51.980;5.934;2022-09-17T14:43:40;19.80;52.00
38480;DHT22;62333;51.980;5.934;2022-09-17T14:46:11;19.60;51.80
38480;DHT22;62333;51.980;5.934;2022-09-17T14:48:39;19.50;52.10
38480;DHT22;62333;51.980;5.934;2022-09-17T14:53:47;19.50;53.40
38480;DHT22;62333;51.980;5.934;2022-09-17T14:56:20;19.50;53.40
38480;DHT22;62333;51.980;5.934;2022-09-17T14:58:49;19.50;53.20
38480;DHT22;62333;51.980;5.934;2022-09-17T15:01:24;19.50;53.30
38480;DHT22;62333;51.980;5.934;2022-09-17T15:04:08;19.50;53.40
38480;DHT22;62333;51.980;5.934;2022-09-17T15:06:34;19.50;53.60
38480;DHT22;62333;51.980;5.934;2022-09-17T15:08:59;19.40;53.50
38480;DHT22;62333;51.980;5.934;2022-09-17T15:11:26;19.40;53.60
38480;DHT22;62333;51.980;5.934;2022-09-17T15:13:53;19.30;53.70
38480;DHT22;62333;51.980;5.934;2022-09-17T15:16:24;19.30;53.80
38480;DHT22;62333;51.980;5.934;2022-09-17T15:18:55;19.20;53.80
38480;DHT22;62333;51.980;5.934;2022-09-17T15:21:41;19.20;53.80
38480;DHT22;62333;51.980;5.934;2022-09-17T15:26:53;19.10;53.80
38480;DHT22;62333;51.980;5.934;2022-09-17T15:29:24;19.10;53.70
38480;DHT22;62333;51.980;5.934;2022-09-17T15:31:51;19.10;53.60
38480;DHT22;62333;51.980;5.934;2022-09-17T15:34:17;19.00;53.60
38480;DHT22;62333;51.980;5.934;2022-09-17T15:37:01;18.90;52.80
38480;DHT22;62333;51.980;5.934;2022-09-17T15:39:29;18.90;53.10
38480;DHT22;62333;51.980;5.934;2022-09-17T15:41:56;18.90;53.20
38480;DHT22;62333;51.980;5.934;2022-09-17T15:44:25;18.90;53.10
38480;DHT22;62333;51.980;5.934;2022-09-17T15:46:52;18.80;52.90
38480;DHT22;62333;51.980;5.934;2022-09-17T15:50:03;18.70;53.00
38480;DHT22;62333;51.980;5.934;2022-09-17T15:52:33;18.60;52.60
38480;DHT22;62333;51.980;5.934;2022-09-17T15:54:59;18.50;52.90
38480;DHT22;62333;51.980;5.934;2022-09-17T15:57:26;18.50;53.70
38480;DHT22;62333;51.980;5.934;2022-09-17T15:59:53;18.40;53.20
38480;DHT22;62333;51.980;5.934;2022-09-17T16:02:28;18.40;53.50
38480;DHT22;62333;51.980;5.934;2022-09-17T16:07:43;18.40;54.40
38480;DHT22;62333;51.980;5.934;2022-09-17T16:10:09;18.40;53.90
38480;DHT22;62333;51.980;5.934;2022-09-17T16:12:35;18.30;54.00
38480;DHT22;62333;51.980;5.934;2022-09-17T16:15:01;18.30;54.20
38480;DHT22;62333;51.980;5.934;2022-09-17T16:17:43;18.30;54.40
38480;DHT22;62333;51.980;5.934;2022-09-17T16:20:16;18.20;54.60
38480;DHT22;62333;51.980;5.934;2022-09-17T16:22:43;18.20;54.70
38480;DHT22;62333;51.980;5.934;2022-09-17T16:25:10;18.20;54.90
38480;DHT22;62333;51.980;5.934;2022-09-17T16:30:19;18.20;55.00
38480;DHT22;62333;51.980;5.934;2022-09-17T16:32:46;18.10;55.00
38480;DHT22;62333;51.980;5.934;2022-09-17T16:35:13;18.10;55.20
38480;DHT22;62333;51.980;5.934;2022-09-17T16:37:39;18.10;55.30
38480;DHT22;62333;51.980;5.934;2022-09-17T16:40:05;18.10;55.40
38480;DHT22;62333;51.980;5.934;2022-09-17T16:42:31;18.10;55.40
38480;DHT22;62333;51.980;5.934;2022-09-17T16:44:57;18.10;55.40
38480;DHT22;62333;51.980;5.934;2022-09-17T16:47:24;18.00;55.30
38480;DHT22;62333;51.980;5.934;2022-09-17T16:49:50;18.00;55.30
38480;DHT22;62333;51.980;5.934;2022-09-17T16:52:15;18.00;55.30
38480;DHT22;62333;51.980;5.934;2022-09-17T16:54:41;18.00;55.40
38480;DHT22;62333;51.980;5.934;2022-09-17T16:57:07;18.00;55.40
38480;DHT22;62333;51.980;5.934;2022-09-17T16:59:32;17.90;55.20
38480;DHT22;62333;51.980;5.934;2022-09-17T17:01:58;18.00;55.20
38480;DHT22;62333;51.980;5.934;2022-09-17T17:04:24;18.00;55.10
38480;DHT22;62333;51.980;5.934;2022-09-17T17:06:50;17.90;55.00
38480;DHT22;62333;51.980;5.934;2022-09-17T17:09:16;17.90;55.00
38480;DHT22;62333;51.980;5.934;2022-09-17T17:11:42;17.90;55.20
38480;DHT22;62333;51.980;5.934;2022-09-17T17:14:07;17.80;54.80
38480;DHT22;62333;51.980;5.934;2022-09-17T17:16:33;17.80;54.90
38480;DHT22;62333;51.980;5.934;2022-09-17T17:18:59;17.70;55.00
38480;DHT22;62333;51.980;5.934;2022-09-17T17:21:25;17.70;55.10
38480;DHT22;62333;51.980;5.934;2022-09-17T17:23:50;17.60;55.20
38480;DHT22;62333;51.980;5.934;2022-09-17T17:26:16;17.60;55.30
38480;DHT22;62333;51.980;5.934;2022-09-17T17:28:42;17.60;55.60
38480;DHT22;62333;51.980;5.934;2022-09-17T17:31:09;17.60;55.80
38480;DHT22;62333;51.980;5.934;2022-09-17T17:33:36;17.50;55.90
38480;DHT22;62333;51.980;5.934;2022-09-17T17:36:03;17.50;56.00
38480;DHT22;62333;51.980;5.934;2022-09-17T17:38:29;17.50;56.20
38480;DHT22;62333;51.980;5.934;2022-09-17T17:41:11;17.50;56.30
38480;DHT22;62333;51.980;5.934;2022-09-17T17:43:37;17.50;56.30
38480;DHT22;62333;51.980;5.934;2022-09-17T17:46:07;17.40;56.40
38480;DHT22;62333;51.980;5.934;2022-09-17T17:48:33;17.40;56.50
38480;DHT22;62333;51.980;5.934;2022-09-17T17:51:04;17.40;56.50
38480;DHT22;62333;51.980;5.934;2022-09-17T17:53:30;17.40;56.50
38480;DHT22;62333;51.980;5.934;2022-09-17T17:56:01;17.40;56.60
38480;DHT22;62333;51.980;5.934;2022-09-17T17:58:28;17.40;56.60
38480;DHT22;62333;51.980;5.934;2022-09-17T18:00:54;17.40;56.70
38480;DHT22;62333;51.980;5.934;2022-09-17T18:03:22;17.40;56.90
38480;DHT22;62333;51.980;5.934;2022-09-17T18:05:55;17.40;57.00
38480;DHT22;62333;51.980;5.934;2022-09-17T18:08:24;17.40;57.20
38480;DHT22;62333;51.980;5.934;2022-09-17T18:10:55;17.30;57.30
38480;DHT22;62333;51.980;5.934;2022-09-17T18:13:22;17.20;57.70
38480;DHT22;62333;51.980;5.934;2022-09-17T18:15:56;17.10;58.10
38480;DHT22;62333;51.980;5.934;2022-09-17T18:18:25;17.10;58.50
38480;DHT22;62333;51.980;5.934;2022-09-17T18:20:51;17.00;58.50
38480;DHT22;62333;51.980;5.934;2022-09-17T18:23:19;17.00;58.60
38480;DHT22;62333;51.980;5.934;2022-09-17T18:25:53;17.00;58.80
38480;DHT22;62333;51.980;5.934;2022-09-17T18:28:19;17.00;58.90
38480;DHT22;62333;51.980;5.934;2022-09-17T18:30:44;17.00;59.10
38480;DHT22;62333;51.980;5.934;2022-09-17T18:33:10;16.90;59.10
38480;DHT22;62333;51.980;5.934;2022-09-17T18:35:36;16.90;59.40
38480;DHT22;62333;51.980;5.934;2022-09-17T18:38:04;16.90;59.60
38480;DHT22;62333;51.980;5.934;2022-09-17T18:40:31;16.80;59.90
38480;DHT22;62333;51.980;5.934;2022-09-17T18:42:57;16.80;59.90
38480;DHT22;62333;51.980;5.934;2022-09-17T18:45:22;16.80;60.40
38480;DHT22;62333;51.980;5.934;2022-09-17T18:47:48;16.70;61.40
38480;DHT22;62333;51.980;5.934;2022-09-17T18:50:14;16.70;60.90
38480;DHT22;62333;51.980;5.934;2022-09-17T18:52:39;16.60;61.10
38480;DHT22;62333;51.980;5.934;2022-09-17T18:55:05;16.60;61.40
38480;DHT22;62333;51.980;5.934;2022-09-17T18:57:32;16.50;61.80
38480;DHT22;62333;51.980;5.934;2022-09-17T18:59:57;16.50;61.90
38480;DHT22;62333;51.980;5.934;2022-09-17T19:02:24;16.50;62.00
38480;DHT22;62333;51.980;5.934;2022-09-17T19:04:50;16.40;62.00
38480;DHT22;62333;51.980;5.934;2022-09-17T19:07:15;16.40;62.30
38480;DHT22;62333;51.980;5.934;2022-09-17T19:09:41;16.40;62.40
38480;DHT22;62333;51.980;5.934;2022-09-17T19:12:06;16.40;62.50
38480;DHT22;62333;51.980;5.934;2022-09-17T19:14:32;16.40;62.80
38480;DHT22;62333;51.980;5.934;2022-09-17T19:16:58;16.30;62.70
38480;DHT22;62333;51.980;5.934;2022-09-17T19:19:24;16.30;62.90
38480;DHT22;62333;51.980;5.934;2022-09-17T19:21:49;16.30;63.20